createdAt,value
2022-07-29T00:00:28.271Z,7.65
2022-07-29T00:01:28.161Z,7.67
2022-07-29T00:02:28.635Z,7.70
2022-07-29T00:03:28.158Z,7.73
2022-07-29T00:04:28.284Z,7.75
2022-07-29T00:05:28.278Z,7.79
2022-07-29T00:06:28.164Z,7.83
2022-07-29T00:07:28.522Z,7.87
2022-07-29T00:08:28.111Z,7.91
2022-07-29T00:09:28.441Z,7.95
2022-07-29T00:10:28.190Z,7.98
2022-07-29T00:11:28.240Z,8.01
2022-07-29T00:12:28.171Z,8.02
2022-07-29T00:13:31.774Z,8.05
2022-07-29T00:14:29.034Z,8.08
2022-07-29T00:15:28.262Z,8.11
2022-07-29T00:16:28.223Z,8.13
2022-07-29T00:17:28.316Z,8.15
2022-07-29T00:18:28.163Z,8.16
2022-07-29T00:19:28.189Z,8.17
2022-07-29T00:20:28.143Z,8.19
2022-07-29T00:22:28.139Z,8.18
2022-07-29T00:23:28.229Z,8.16
2022-07-29T00:24:28.409Z,8.14
2022-07-29T00:26:32.746Z,8.15
2022-07-29T00:27:28.148Z,8.17
2022-07-29T00:28:28.164Z,8.20
2022-07-29T00:29:34.121Z,8.21
2022-07-29T00:30:28.202Z,8.23
2022-07-29T00:33:28.166Z,8.26
2022-07-29T00:34:37.503Z,8.27
2022-07-29T00:35:37.510Z,8.30
2022-07-29T00:36:28.150Z,8.33
2022-07-29T00:37:28.517Z,8.38
2022-07-29T00:38:28.163Z,8.44
2022-07-29T00:39:28.120Z,8.50
2022-07-29T00:40:28.221Z,8.53
2022-07-29T00:41:28.107Z,8.54
2022-07-29T00:42:28.645Z,8.55
2022-07-29T00:43:28.560Z,8.54
2022-07-29T00:44:28.128Z,8.53
2022-07-29T00:45:28.223Z,8.49
2022-07-29T00:46:28.509Z,8.47
2022-07-29T00:47:28.120Z,8.44
2022-07-29T00:48:28.134Z,8.38
2022-07-29T00:49:28.378Z,8.31
2022-07-29T00:50:28.773Z,8.20
2022-07-29T00:51:28.903Z,8.09
2022-07-29T00:52:28.496Z,7.97
2022-07-29T00:53:28.476Z,7.84
2022-07-29T00:55:28.665Z,7.61
2022-07-29T00:56:28.439Z,7.50
2022-07-29T00:57:28.199Z,7.41
2022-07-29T00:58:29.171Z,7.30
2022-07-29T00:59:34.735Z,7.22
2022-07-29T01:00:30.538Z,7.17
2022-07-29T01:01:29.699Z,7.12
2022-07-29T01:02:28.353Z,7.10
2022-07-29T01:03:28.199Z,7.09
2022-07-29T01:04:30.913Z,7.11
2022-07-29T01:05:48.511Z,7.12
2022-07-29T01:06:29.070Z,7.16
2022-07-29T01:07:29.291Z,7.22
2022-07-29T01:08:28.407Z,7.28
2022-07-29T01:09:42.175Z,7.36
2022-07-29T01:10:28.759Z,7.44
2022-07-29T01:11:28.332Z,7.49
2022-07-29T01:12:30.398Z,7.54
2022-07-29T01:13:28.511Z,7.59
2022-07-29T01:14:29.818Z,7.62
2022-07-29T01:15:28.503Z,7.65
2022-07-29T01:16:34.039Z,7.69
2022-07-29T01:17:38.885Z,7.73
2022-07-29T01:18:35.738Z,7.76
2022-07-29T01:19:46.032Z,7.79
2022-07-29T01:20:41.391Z,7.81
2022-07-29T01:21:37.673Z,7.80
2022-07-29T01:23:45.987Z,7.81
2022-07-29T01:24:36.767Z,7.82
2022-07-29T01:26:43.786Z,7.85
2022-07-29T01:27:38.028Z,7.87
2022-07-29T01:28:46.075Z,7.90
2022-07-29T01:29:40.384Z,7.94
2022-07-29T01:30:30.139Z,7.98
2022-07-29T01:31:49.139Z,8.01
2022-07-29T01:32:33.255Z,8.03
2022-07-29T01:33:40.519Z,8.08
2022-07-29T01:34:37.997Z,8.14
2022-07-29T01:35:35.782Z,8.22
2022-07-29T01:36:41.620Z,8.31
2022-07-29T01:37:38.359Z,8.40
2022-07-29T01:38:30.889Z,8.46
2022-07-29T01:39:34.389Z,8.52
2022-07-29T01:40:39.139Z,8.56
2022-07-29T01:41:33.179Z,8.61
2022-07-29T01:42:30.385Z,8.69
2022-07-29T01:43:41.655Z,8.76
2022-07-29T01:44:36.234Z,8.84
2022-07-29T01:45:39.525Z,8.91
2022-07-29T01:46:36.729Z,8.94
2022-07-29T01:47:36.647Z,8.97
2022-07-29T01:48:39.264Z,8.98
2022-07-29T01:49:33.487Z,8.97
2022-07-29T01:54:39.330Z,8.96
2022-07-29T01:55:32.921Z,8.95
2022-07-29T01:56:32.247Z,8.93
2022-07-29T01:57:32.677Z,8.90
2022-07-29T01:58:30.797Z,8.86
2022-07-29T01:59:28.770Z,8.81
2022-07-29T02:00:29.371Z,8.74
2022-07-29T02:01:29.935Z,8.68
2022-07-29T02:02:30.193Z,8.62
2022-07-29T02:03:29.520Z,8.60
2022-07-29T02:04:30.404Z,8.57
2022-07-29T02:05:30.836Z,8.54
2022-07-29T02:06:29.487Z,8.51
2022-07-29T02:07:30.989Z,8.48
2022-07-29T02:08:29.880Z,8.45
2022-07-29T02:09:29.647Z,8.39
2022-07-29T02:10:31.504Z,8.35
2022-07-29T02:11:28.143Z,8.33
2022-07-29T02:12:30.263Z,8.34
2022-07-29T02:14:31.710Z,8.36
2022-07-29T02:15:32.313Z,8.37
2022-07-29T02:16:32.114Z,8.40
2022-07-29T02:17:34.338Z,8.41
2022-07-29T02:18:32.121Z,8.44
2022-07-29T02:19:29.542Z,8.47
2022-07-29T02:20:30.022Z,8.51
2022-07-29T02:21:29.900Z,8.56
2022-07-29T02:22:31.109Z,8.60
2022-07-29T02:23:29.161Z,8.62
2022-07-29T02:24:29.186Z,8.61
2022-07-29T02:25:36.787Z,8.60
2022-07-29T02:26:28.681Z,8.58
2022-07-29T02:27:30.675Z,8.57
2022-07-29T02:28:30.336Z,8.55
2022-07-29T02:29:30.328Z,8.54
2022-07-29T02:30:29.098Z,8.50
2022-07-29T02:31:36.262Z,8.46
2022-07-29T02:32:29.584Z,8.40
2022-07-29T02:33:30.108Z,8.33
2022-07-29T02:34:29.867Z,8.28
2022-07-29T02:35:28.542Z,8.25
2022-07-29T02:36:28.895Z,8.23
2022-07-29T02:37:30.359Z,8.21
2022-07-29T02:38:39.296Z,8.20
2022-07-29T02:39:30.295Z,8.19
2022-07-29T02:40:28.288Z,8.18
2022-07-29T02:41:39.389Z,8.16
2022-07-29T02:42:30.215Z,8.15
2022-07-29T02:43:28.788Z,8.14
2022-07-29T02:44:34.144Z,8.13
2022-07-29T02:45:28.582Z,8.10
2022-07-29T02:46:33.603Z,8.08
2022-07-29T02:47:41.778Z,8.06
2022-07-29T02:48:38.972Z,8.04
2022-07-29T02:50:35.810Z,8.05
2022-07-29T02:51:44.960Z,8.07
2022-07-29T02:52:38.732Z,8.10
2022-07-29T02:53:30.611Z,8.12
2022-07-29T02:54:33.698Z,8.15
2022-07-29T02:55:33.593Z,8.19
2022-07-29T02:56:36.157Z,8.23
2022-07-29T02:57:54.850Z,8.27
2022-07-29T02:58:31.622Z,8.30
2022-07-29T02:59:32.359Z,8.32
2022-07-29T03:00:30.596Z,8.29
2022-07-29T03:01:32.030Z,8.25
2022-07-29T03:02:30.446Z,8.20
2022-07-29T03:03:33.646Z,8.13
2022-07-29T03:04:30.396Z,8.03
2022-07-29T03:05:29.142Z,7.88
2022-07-29T03:06:38.540Z,7.74
2022-07-29T03:07:28.558Z,7.60
2022-07-29T03:08:29.562Z,7.48
2022-07-29T03:09:29.316Z,7.36
2022-07-29T03:10:29.534Z,7.18
2022-07-29T03:11:46.040Z,6.94
2022-07-29T03:12:28.438Z,6.73
2022-07-29T03:13:29.144Z,6.54
2022-07-29T03:14:28.051Z,6.44
2022-07-29T03:15:28.818Z,6.38
2022-07-29T03:16:28.236Z,6.35
2022-07-29T03:18:27.885Z,6.36
2022-07-29T03:19:28.628Z,6.39
2022-07-29T03:20:28.592Z,6.42
2022-07-29T03:21:27.724Z,6.45
2022-07-29T03:22:28.004Z,6.49
2022-07-29T03:23:35.180Z,6.53
2022-07-29T03:24:28.372Z,6.58
2022-07-29T03:25:28.496Z,6.65
2022-07-29T03:26:27.863Z,6.71
2022-07-29T03:27:27.615Z,6.77
2022-07-29T03:28:28.410Z,6.83
2022-07-29T03:29:33.425Z,6.89
2022-07-29T03:30:28.047Z,6.95
2022-07-29T03:31:27.728Z,6.98
2022-07-29T03:32:27.602Z,7.03
2022-07-29T03:33:27.688Z,7.06
2022-07-29T03:34:27.798Z,7.09
2022-07-29T03:35:27.778Z,7.12
2022-07-29T03:36:27.567Z,7.14
2022-07-29T03:37:27.914Z,7.16
2022-07-29T03:38:31.167Z,7.17
2022-07-29T03:39:31.523Z,7.19
2022-07-29T03:41:28.305Z,7.20
2022-07-29T03:43:32.658Z,7.19
2022-07-29T03:47:39.303Z,7.17
2022-07-29T03:48:30.436Z,7.15
2022-07-29T03:49:29.424Z,7.12
2022-07-29T03:50:27.822Z,7.07
2022-07-29T03:51:31.559Z,7.03
2022-07-29T03:52:27.938Z,7.00
2022-07-29T03:53:27.707Z,6.96
2022-07-29T03:54:28.105Z,6.94
2022-07-29T03:55:30.169Z,6.92
2022-07-29T03:56:29.616Z,6.90
2022-07-29T03:57:30.045Z,6.89
2022-07-29T03:58:29.492Z,6.88
2022-07-29T03:59:29.307Z,6.87
2022-07-29T04:00:28.923Z,6.86
2022-07-29T04:02:30.672Z,6.85
2022-07-29T04:04:27.953Z,6.86
2022-07-29T04:05:27.560Z,6.87
2022-07-29T04:06:27.741Z,6.88
2022-07-29T04:07:27.621Z,6.89
2022-07-29T04:09:27.933Z,6.92
2022-07-29T04:10:31.683Z,6.93
2022-07-29T04:12:27.559Z,6.96
2022-07-29T04:13:27.654Z,6.97
2022-07-29T04:14:27.604Z,6.99
2022-07-29T04:15:31.060Z,7.02
2022-07-29T04:16:27.815Z,7.04
2022-07-29T04:17:27.592Z,7.06
2022-07-29T04:18:27.640Z,7.07
2022-07-29T04:19:27.628Z,7.09
2022-07-29T04:20:27.674Z,7.11
2022-07-29T04:21:27.875Z,7.12
2022-07-29T04:22:27.645Z,7.14
2022-07-29T04:23:27.976Z,7.15
2022-07-29T04:25:27.572Z,7.16
2022-07-29T04:26:27.629Z,7.15
2022-07-29T04:27:27.925Z,7.16
2022-07-29T04:30:27.664Z,7.15
2022-07-29T04:32:28.086Z,7.14
2022-07-29T04:33:27.640Z,7.13
2022-07-29T04:36:29.410Z,7.14
2022-07-29T04:37:27.522Z,7.13
2022-07-29T04:43:27.720Z,7.14
2022-07-29T04:45:27.683Z,7.15
2022-07-29T04:47:27.626Z,7.14
2022-07-29T04:48:28.944Z,7.13
2022-07-29T04:49:27.702Z,7.10
2022-07-29T04:50:27.626Z,7.07
2022-07-29T04:51:27.650Z,7.04
2022-07-29T04:52:27.582Z,7.02
2022-07-29T04:53:28.053Z,6.99
2022-07-29T04:54:27.590Z,6.96
2022-07-29T04:55:27.692Z,6.94
2022-07-29T04:56:27.902Z,6.92
2022-07-29T04:57:27.594Z,6.89
2022-07-29T04:58:27.601Z,6.86
2022-07-29T04:59:28.210Z,6.84
2022-07-29T05:00:32.083Z,6.80
2022-07-29T05:01:27.646Z,6.77
2022-07-29T05:02:27.659Z,6.72
2022-07-29T05:03:27.547Z,6.66
2022-07-29T05:04:27.513Z,6.59
2022-07-29T05:05:27.608Z,6.53
2022-07-29T05:06:27.564Z,6.48
2022-07-29T05:07:27.545Z,6.44
2022-07-29T05:08:27.669Z,6.41
2022-07-29T05:09:27.626Z,6.40
2022-07-29T05:10:27.627Z,6.39
2022-07-29T05:11:30.534Z,6.41
2022-07-29T05:12:28.724Z,6.43
2022-07-29T05:13:27.511Z,6.47
2022-07-29T05:14:27.645Z,6.52
2022-07-29T05:15:28.198Z,6.55
2022-07-29T05:16:27.893Z,6.59
2022-07-29T05:17:27.723Z,6.63
2022-07-29T05:18:27.884Z,6.66
2022-07-29T05:19:27.559Z,6.67
2022-07-29T05:20:29.338Z,6.68
2022-07-29T05:22:27.630Z,6.67
2022-07-29T05:23:27.569Z,6.65
2022-07-29T05:24:27.827Z,6.63
2022-07-29T05:25:43.503Z,6.59
2022-07-29T05:26:27.605Z,6.56
2022-07-29T05:27:27.524Z,6.54
2022-07-29T05:28:27.506Z,6.53
2022-07-29T05:32:27.629Z,6.54
2022-07-29T05:34:27.637Z,6.55
2022-07-29T05:37:27.584Z,6.54
2022-07-29T05:40:27.582Z,6.55
2022-07-29T05:42:27.809Z,6.57
2022-07-29T05:46:27.804Z,6.58
2022-07-29T05:47:28.264Z,6.62
2022-07-29T05:48:27.562Z,6.67
2022-07-29T05:49:27.689Z,6.74
2022-07-29T05:50:27.495Z,6.80
2022-07-29T05:51:27.749Z,6.85
2022-07-29T05:52:27.894Z,6.88
2022-07-29T05:53:27.554Z,6.90
2022-07-29T05:54:27.553Z,6.93
2022-07-29T05:55:27.510Z,6.95
2022-07-29T05:56:27.906Z,6.96
2022-07-29T05:57:27.484Z,6.97
2022-07-29T06:00:27.867Z,6.99
2022-07-29T06:01:27.569Z,7.00
2022-07-29T06:02:27.721Z,7.04
2022-07-29T06:03:27.938Z,7.07
2022-07-29T06:04:27.539Z,7.10
2022-07-29T06:05:27.808Z,7.12
2022-07-29T06:07:27.511Z,7.11
2022-07-29T06:08:27.557Z,7.09
2022-07-29T06:09:29.219Z,7.08
2022-07-29T06:10:27.993Z,7.06
2022-07-29T06:11:27.722Z,7.05
2022-07-29T06:12:27.482Z,7.03
2022-07-29T06:13:27.579Z,7.00
2022-07-29T06:14:29.413Z,6.99
2022-07-29T06:15:27.522Z,6.98
2022-07-29T06:18:27.938Z,6.97
2022-07-29T06:19:27.632Z,6.96
2022-07-29T06:23:27.533Z,6.97
2022-07-29T06:24:28.200Z,6.98
2022-07-29T06:25:30.350Z,7.00
2022-07-29T06:26:30.429Z,7.01
2022-07-29T06:27:27.575Z,7.02
2022-07-29T06:28:27.546Z,7.01
2022-07-29T06:29:27.522Z,7.02
2022-07-29T06:30:27.781Z,7.03
2022-07-29T06:34:27.574Z,7.02
2022-07-29T06:35:38.296Z,7.01
2022-07-29T06:36:27.486Z,7.00
2022-07-29T06:37:27.428Z,6.98
2022-07-29T06:38:30.897Z,6.94
2022-07-29T06:39:27.533Z,6.89
2022-07-29T06:40:37.155Z,6.84
2022-07-29T06:41:27.503Z,6.80
2022-07-29T06:42:27.462Z,6.75
2022-07-29T06:43:28.289Z,6.72
2022-07-29T06:44:27.476Z,6.69
2022-07-29T06:45:27.696Z,6.66
2022-07-29T06:46:28.696Z,6.64
2022-07-29T06:47:27.503Z,6.62
2022-07-29T06:48:27.747Z,6.58
2022-07-29T06:49:28.777Z,6.55
2022-07-29T06:50:27.801Z,6.52
2022-07-29T06:51:28.513Z,6.48
2022-07-29T06:52:27.528Z,6.44
2022-07-29T06:53:28.170Z,6.40
2022-07-29T06:54:27.476Z,6.36
2022-07-29T06:55:31.087Z,6.31
2022-07-29T06:56:27.704Z,6.27
2022-07-29T06:57:27.487Z,6.22
2022-07-29T06:58:28.769Z,6.17
2022-07-29T06:59:33.541Z,6.12
2022-07-29T07:00:27.484Z,6.09
2022-07-29T07:01:27.651Z,6.07
2022-07-29T07:02:27.582Z,6.05
2022-07-29T07:03:27.535Z,6.02
2022-07-29T07:04:27.646Z,6.00
2022-07-29T07:06:28.552Z,5.99
2022-07-29T07:07:27.514Z,5.97
2022-07-29T07:08:28.087Z,5.95
2022-07-29T07:09:39.956Z,5.93
2022-07-29T07:11:27.682Z,5.95
2022-07-29T07:12:27.463Z,6.00
2022-07-29T07:13:29.181Z,6.05
2022-07-29T07:14:28.508Z,6.06
2022-07-29T07:15:38.829Z,6.09
2022-07-29T07:16:27.607Z,6.13
2022-07-29T07:17:27.446Z,6.16
2022-07-29T07:18:27.457Z,6.19
2022-07-29T07:20:27.625Z,6.20
2022-07-29T07:21:30.379Z,6.22
2022-07-29T07:25:27.821Z,6.20
2022-07-29T07:26:28.188Z,6.19
2022-07-29T07:27:28.487Z,6.17
2022-07-29T07:28:27.437Z,6.14
2022-07-29T07:29:27.491Z,6.12
2022-07-29T07:30:28.360Z,6.10
2022-07-29T07:31:27.591Z,6.09
2022-07-29T07:32:27.562Z,6.08
2022-07-29T07:34:28.157Z,6.07
2022-07-29T07:36:27.518Z,6.08
2022-07-29T07:37:27.815Z,6.11
2022-07-29T07:38:27.423Z,6.14
2022-07-29T07:39:27.454Z,6.15
2022-07-29T07:40:27.569Z,6.16
2022-07-29T07:41:27.609Z,6.17
2022-07-29T07:42:27.554Z,6.19
2022-07-29T07:43:27.507Z,6.22
2022-07-29T07:44:27.663Z,6.23
2022-07-29T07:45:27.868Z,6.24
2022-07-29T07:48:27.834Z,6.22
2022-07-29T07:49:27.525Z,6.19
2022-07-29T07:50:27.725Z,6.17
2022-07-29T07:51:27.998Z,6.15
2022-07-29T07:52:27.539Z,6.13
2022-07-29T07:53:27.589Z,6.09
2022-07-29T07:54:27.630Z,6.06
2022-07-29T07:55:27.945Z,6.01
2022-07-29T07:56:30.731Z,5.94
2022-07-29T07:57:27.518Z,5.87
2022-07-29T07:58:27.472Z,5.81
2022-07-29T07:59:27.511Z,5.74
2022-07-29T08:00:27.968Z,5.68
2022-07-29T08:01:27.454Z,5.63
2022-07-29T08:02:27.490Z,5.58
2022-07-29T08:03:27.410Z,5.54
2022-07-29T08:04:29.139Z,5.50
2022-07-29T08:05:27.420Z,5.48
2022-07-29T08:06:28.417Z,5.46
2022-07-29T08:07:27.479Z,5.44
2022-07-29T08:08:27.467Z,5.43
2022-07-29T08:09:30.517Z,5.42
2022-07-29T08:10:36.934Z,5.41
2022-07-29T08:12:27.537Z,5.40
2022-07-29T08:13:29.345Z,5.39
2022-07-29T08:14:27.520Z,5.38
2022-07-29T08:16:27.499Z,5.37
2022-07-29T08:17:27.777Z,5.35
2022-07-29T08:18:28.746Z,5.33
2022-07-29T08:19:27.553Z,5.31
2022-07-29T08:20:27.692Z,5.28
2022-07-29T08:21:27.503Z,5.26
2022-07-29T08:22:27.414Z,5.24
2022-07-29T08:23:47.816Z,5.22
2022-07-29T08:24:36.816Z,5.20
2022-07-29T08:25:27.363Z,5.17
2022-07-29T08:26:27.424Z,5.14
2022-07-29T08:27:43.119Z,5.11
2022-07-29T08:28:27.371Z,5.08
2022-07-29T08:29:27.417Z,5.04
2022-07-29T08:30:27.445Z,5.01
2022-07-29T08:31:27.477Z,4.97
2022-07-29T08:32:52.184Z,4.93
2022-07-29T08:33:27.453Z,4.88
2022-07-29T08:34:27.926Z,4.84
2022-07-29T08:35:30.957Z,4.81
2022-07-29T08:36:27.741Z,4.78
2022-07-29T08:37:27.358Z,4.76
2022-07-29T08:38:28.526Z,4.73
2022-07-29T08:39:27.854Z,4.70
2022-07-29T08:40:32.567Z,4.68
2022-07-29T08:41:28.032Z,4.66
2022-07-29T08:42:27.469Z,4.63
2022-07-29T08:43:27.665Z,4.60
2022-07-29T08:44:30.880Z,4.58
2022-07-29T08:45:27.751Z,4.54
2022-07-29T08:46:27.591Z,4.52
2022-07-29T08:47:29.245Z,4.49
2022-07-29T08:48:27.373Z,4.48
2022-07-29T08:49:27.487Z,4.46
2022-07-29T08:50:27.397Z,4.45
2022-07-29T08:51:29.006Z,4.44
2022-07-29T08:52:29.580Z,4.43
2022-07-29T08:53:29.763Z,4.42
2022-07-29T08:54:28.085Z,4.41
2022-07-29T08:55:28.020Z,4.39
2022-07-29T08:56:27.680Z,4.38
2022-07-29T08:57:27.954Z,4.36
2022-07-29T08:58:28.830Z,4.34
2022-07-29T08:59:29.310Z,4.33
2022-07-29T09:00:28.463Z,4.32
2022-07-29T09:01:35.226Z,4.34
2022-07-29T09:02:30.808Z,4.36
2022-07-29T09:03:32.628Z,4.39
2022-07-29T09:04:32.554Z,4.42
2022-07-29T09:05:28.682Z,4.46
2022-07-29T09:06:34.325Z,4.50
2022-07-29T09:07:27.372Z,4.54
2022-07-29T09:08:27.623Z,4.59
2022-07-29T09:09:28.027Z,4.61
2022-07-29T09:10:27.861Z,4.63
2022-07-29T09:11:27.880Z,4.65
2022-07-29T09:14:27.435Z,4.64
2022-07-29T09:15:27.446Z,4.62
2022-07-29T09:16:51.897Z,4.61
2022-07-29T09:17:45.106Z,4.60
2022-07-29T09:18:37.441Z,4.59
2022-07-29T09:19:31.008Z,4.58
2022-07-29T09:20:37.244Z,4.57
2022-07-29T09:21:46.156Z,4.56
2022-07-29T09:22:32.855Z,4.55
2022-07-29T09:23:27.323Z,4.54
2022-07-29T09:24:38.587Z,4.52
2022-07-29T09:25:36.803Z,4.50
2022-07-29T09:26:30.934Z,4.49
2022-07-29T09:28:27.411Z,4.47
2022-07-29T09:29:31.156Z,4.46
2022-07-29T09:30:31.373Z,4.45
2022-07-29T09:31:35.816Z,4.44
2022-07-29T09:32:28.114Z,4.42
2022-07-29T09:35:29.282Z,4.43
2022-07-29T09:36:27.491Z,4.42
2022-07-29T09:37:31.221Z,4.43
2022-07-29T09:41:28.624Z,4.44
2022-07-29T09:45:35.486Z,4.43
2022-07-29T09:47:46.145Z,4.44
2022-07-29T09:53:33.476Z,4.45
2022-07-29T09:54:29.132Z,4.46
2022-07-29T09:55:27.422Z,4.48
2022-07-29T09:56:44.040Z,4.51
2022-07-29T09:57:31.200Z,4.54
2022-07-29T09:58:28.831Z,4.57
2022-07-29T09:59:27.740Z,4.59
2022-07-29T10:00:28.156Z,4.62
2022-07-29T10:01:30.541Z,4.67
2022-07-29T10:02:32.685Z,4.72
2022-07-29T10:03:27.605Z,4.77
2022-07-29T10:04:43.785Z,4.82
2022-07-29T10:05:36.073Z,4.87
2022-07-29T10:06:27.363Z,4.89
2022-07-29T10:07:27.518Z,4.91
2022-07-29T10:10:30.021Z,4.90
2022-07-29T10:11:27.334Z,4.87
2022-07-29T10:12:27.295Z,4.84
2022-07-29T10:13:27.926Z,4.80
2022-07-29T10:14:27.409Z,4.77
2022-07-29T10:15:29.692Z,4.74
2022-07-29T10:16:33.699Z,4.69
2022-07-29T10:17:27.450Z,4.65
2022-07-29T10:18:27.414Z,4.62
2022-07-29T10:19:27.431Z,4.60
2022-07-29T10:20:28.992Z,4.58
2022-07-29T10:22:51.846Z,4.57
2022-07-29T10:23:27.964Z,4.58
2022-07-29T10:24:28.982Z,4.59
2022-07-29T10:25:28.495Z,4.60
2022-07-29T10:26:27.498Z,4.61
2022-07-29T10:27:27.594Z,4.62
2022-07-29T10:28:27.768Z,4.64
2022-07-29T10:29:28.488Z,4.66
2022-07-29T10:34:45.532Z,4.65
2022-07-29T10:35:31.439Z,4.64
2022-07-29T10:35:46.400Z,4.64
2022-07-29T10:36:03.679Z,4.64
2022-07-29T10:37:35.983Z,4.63
2022-07-29T10:39:49.725Z,4.64
2022-07-29T10:45:27.550Z,4.62
2022-07-29T10:47:28.634Z,4.61
2022-07-29T10:48:27.530Z,4.60
2022-07-29T10:49:30.377Z,4.59
2022-07-29T10:51:27.395Z,4.57
2022-07-29T10:54:37.328Z,4.55
2022-07-29T10:55:37.752Z,4.54
2022-07-29T10:57:53.994Z,4.53
2022-07-29T10:59:36.178Z,4.51
2022-07-29T11:00:31.606Z,4.49
2022-07-29T11:01:37.664Z,4.47
2022-07-29T11:02:41.908Z,4.46
2022-07-29T11:03:49.559Z,4.43
2022-07-29T11:04:45.383Z,4.41
2022-07-29T11:05:39.989Z,4.40
2022-07-29T11:06:36.618Z,4.37
2022-07-29T11:07:28.144Z,4.35
2022-07-29T11:08:28.118Z,4.32
2022-07-29T11:09:37.426Z,4.29
2022-07-29T11:10:31.196Z,4.25
2022-07-29T11:11:33.687Z,4.23
2022-07-29T11:12:39.949Z,4.21
2022-07-29T11:13:47.366Z,4.18
2022-07-29T11:14:45.435Z,4.15
2022-07-29T11:15:28.617Z,4.12
2022-07-29T11:16:27.743Z,4.09
2022-07-29T11:17:27.627Z,4.07
2022-07-29T11:18:27.327Z,4.06
2022-07-29T11:19:30.401Z,4.05
2022-07-29T11:21:55.011Z,4.06
2022-07-29T11:23:36.642Z,4.07
2022-07-29T11:24:29.619Z,4.08
2022-07-29T11:26:28.853Z,4.09
2022-07-29T11:27:40.571Z,4.10
2022-07-29T11:29:27.551Z,4.09
2022-07-29T11:31:44.773Z,4.08
2022-07-29T11:32:38.808Z,4.05
2022-07-29T11:33:37.546Z,4.03
2022-07-29T11:34:30.853Z,4.01
2022-07-29T11:35:37.976Z,4.00
2022-07-29T11:36:28.392Z,3.99
2022-07-29T11:38:31.870Z,3.96
2022-07-29T11:39:36.355Z,3.95
2022-07-29T11:40:27.328Z,3.92
2022-07-29T11:41:30.243Z,3.90
2022-07-29T11:42:35.991Z,3.88
2022-07-29T11:43:45.389Z,3.87
2022-07-29T11:44:45.340Z,3.84
2022-07-29T11:45:44.153Z,3.82
2022-07-29T11:46:46.369Z,3.80
2022-07-29T11:47:29.000Z,3.77
2022-07-29T11:48:36.752Z,3.76
2022-07-29T11:49:32.383Z,3.73
2022-07-29T11:50:33.537Z,3.71
2022-07-29T11:51:32.697Z,3.69
2022-07-29T11:52:49.764Z,3.68
2022-07-29T11:53:29.277Z,3.67
2022-07-29T11:54:33.523Z,3.66
2022-07-29T11:55:32.250Z,3.63
2022-07-29T11:56:32.357Z,3.61
2022-07-29T11:57:36.337Z,3.58
2022-07-29T11:58:28.747Z,3.55
2022-07-29T11:59:33.448Z,3.52
2022-07-29T12:00:38.860Z,3.50
2022-07-29T12:01:28.134Z,3.47
2022-07-29T12:02:38.147Z,3.44
2022-07-29T12:03:32.882Z,3.41
2022-07-29T12:04:28.440Z,3.38
2022-07-29T12:05:48.304Z,3.34
2022-07-29T12:06:27.259Z,3.31
2022-07-29T12:07:34.611Z,3.28
2022-07-29T12:08:28.753Z,3.25
2022-07-29T12:09:27.351Z,3.23
2022-07-29T12:10:32.647Z,3.21
2022-07-29T12:11:27.328Z,3.19
2022-07-29T12:12:27.644Z,3.18
2022-07-29T12:13:37.587Z,3.19
2022-07-29T12:15:31.527Z,3.20
2022-07-29T12:18:27.960Z,3.19
2022-07-29T12:19:27.907Z,3.18
2022-07-29T12:20:29.802Z,3.17
2022-07-29T12:21:28.795Z,3.15
2022-07-29T12:22:28.111Z,3.13
2022-07-29T12:23:29.485Z,3.12
2022-07-29T12:24:27.636Z,3.11
2022-07-29T12:25:32.590Z,3.09
2022-07-29T12:26:27.240Z,3.07
2022-07-29T12:27:28.567Z,3.04
2022-07-29T12:28:28.115Z,3.03
2022-07-29T12:29:35.100Z,3.01
2022-07-29T12:30:41.531Z,3.00
2022-07-29T12:31:43.304Z,2.99
2022-07-29T12:32:37.180Z,2.98
2022-07-29T12:33:30.608Z,2.97
2022-07-29T12:34:30.493Z,2.96
2022-07-29T12:35:27.390Z,2.95
2022-07-29T12:36:27.922Z,2.94
2022-07-29T12:37:40.754Z,2.93
2022-07-29T12:38:27.913Z,2.92
2022-07-29T12:39:29.211Z,2.91
2022-07-29T12:40:27.292Z,2.89
2022-07-29T12:41:29.257Z,2.88
2022-07-29T12:42:27.286Z,2.87
2022-07-29T12:43:27.939Z,2.84
2022-07-29T12:44:36.540Z,2.82
2022-07-29T12:45:31.992Z,2.81
2022-07-29T12:46:27.742Z,2.78
2022-07-29T12:47:27.249Z,2.76
2022-07-29T12:48:40.434Z,2.73
2022-07-29T12:49:27.865Z,2.72
2022-07-29T12:50:27.255Z,2.70
2022-07-29T12:51:38.396Z,2.69
2022-07-29T12:52:32.274Z,2.68
2022-07-29T12:53:28.013Z,2.65
2022-07-29T12:54:27.163Z,2.64
2022-07-29T12:56:42.376Z,2.63
2022-07-29T12:58:32.313Z,2.62
2022-07-29T12:59:27.191Z,2.63
2022-07-29T13:02:27.307Z,2.64
2022-07-29T13:03:27.266Z,2.66
2022-07-29T13:04:30.591Z,2.67
2022-07-29T13:05:48.826Z,2.69
2022-07-29T13:06:36.964Z,2.71
2022-07-29T13:07:54.418Z,2.72
2022-07-29T13:08:27.177Z,2.73
2022-07-29T13:09:44.082Z,2.74
2022-07-29T13:12:27.249Z,2.75
2022-07-29T13:13:27.157Z,2.76
2022-07-29T13:14:34.418Z,2.77
2022-07-29T13:15:27.483Z,2.78
2022-07-29T13:16:27.486Z,2.80
2022-07-29T13:17:32.614Z,2.82
2022-07-29T13:18:30.477Z,2.84
2022-07-29T13:19:37.043Z,2.86
2022-07-29T13:20:30.770Z,2.88
2022-07-29T13:21:27.150Z,2.90
2022-07-29T13:22:27.172Z,2.93
2022-07-29T13:23:27.234Z,2.97
2022-07-29T13:24:27.159Z,3.00
2022-07-29T13:25:28.810Z,3.03
2022-07-29T13:26:27.175Z,3.07
2022-07-29T13:27:29.519Z,3.10
2022-07-29T13:28:27.205Z,3.12
2022-07-29T13:29:31.447Z,3.15
2022-07-29T13:30:27.762Z,3.17
2022-07-29T13:31:27.310Z,3.18
2022-07-29T13:32:29.001Z,3.20
2022-07-29T13:33:27.179Z,3.21
2022-07-29T13:35:30.505Z,3.22
2022-07-29T13:38:31.106Z,3.20
2022-07-29T13:39:27.177Z,3.17
2022-07-29T13:40:27.447Z,3.14
2022-07-29T13:41:28.079Z,3.11
2022-07-29T13:42:28.423Z,3.08
2022-07-29T13:43:27.137Z,3.05
2022-07-29T13:44:27.253Z,3.02
2022-07-29T13:45:29.158Z,2.99
2022-07-29T13:46:27.148Z,2.96
2022-07-29T13:47:32.395Z,2.93
2022-07-29T13:48:27.122Z,2.89
2022-07-29T13:49:27.518Z,2.86
2022-07-29T13:50:27.275Z,2.83
2022-07-29T13:51:27.143Z,2.80
2022-07-29T13:52:27.124Z,2.77
2022-07-29T13:53:27.417Z,2.75
2022-07-29T13:54:27.099Z,2.72
2022-07-29T13:55:27.247Z,2.69
2022-07-29T13:56:27.351Z,2.67
2022-07-29T13:57:27.491Z,2.65
2022-07-29T13:58:27.133Z,2.64
2022-07-29T13:59:27.081Z,2.63
2022-07-29T14:00:27.264Z,2.60
2022-07-29T14:01:28.221Z,2.58
2022-07-29T14:02:27.121Z,2.55
2022-07-29T14:03:27.195Z,2.53
2022-07-29T14:04:27.205Z,2.51
2022-07-29T14:05:27.332Z,2.50
2022-07-29T14:06:27.198Z,2.48
2022-07-29T14:07:27.125Z,2.46
2022-07-29T14:08:27.451Z,2.44
2022-07-29T14:09:27.208Z,2.42
2022-07-29T14:10:28.434Z,2.40
2022-07-29T14:11:27.240Z,2.39
2022-07-29T14:12:27.202Z,2.37
2022-07-29T14:13:27.122Z,2.36
2022-07-29T14:14:27.172Z,2.35
2022-07-29T14:15:27.170Z,2.33
2022-07-29T14:16:27.197Z,2.32
2022-07-29T14:17:27.369Z,2.31
2022-07-29T14:18:27.223Z,2.29
2022-07-29T14:19:27.249Z,2.28
2022-07-29T14:20:27.320Z,2.26
2022-07-29T14:21:27.153Z,2.25
2022-07-29T14:22:27.170Z,2.24
2022-07-29T14:23:27.600Z,2.22
2022-07-29T14:24:27.082Z,2.21
2022-07-29T14:25:27.117Z,2.19
2022-07-29T14:26:27.183Z,2.18
2022-07-29T14:27:37.783Z,2.17
2022-07-29T14:28:27.312Z,2.16
2022-07-29T14:29:36.974Z,2.14
2022-07-29T14:30:27.167Z,2.13
2022-07-29T14:32:27.146Z,2.12
2022-07-29T14:33:27.111Z,2.11
2022-07-29T14:34:27.164Z,2.10
2022-07-29T14:35:27.229Z,2.08
2022-07-29T14:36:28.613Z,2.06
2022-07-29T14:37:27.097Z,2.04
2022-07-29T14:40:27.241Z,2.03
2022-07-29T14:41:29.248Z,2.04
2022-07-29T14:42:27.198Z,2.03
2022-07-29T14:49:27.625Z,2.02
2022-07-29T14:55:29.455Z,2.01
2022-07-29T14:56:36.684Z,2.02
2022-07-29T14:59:27.409Z,2.04
2022-07-29T15:00:27.782Z,2.05
2022-07-29T15:01:27.222Z,2.07
2022-07-29T15:02:45.741Z,2.08
2022-07-29T15:03:27.041Z,2.10
2022-07-29T15:04:27.124Z,2.12
2022-07-29T15:05:27.700Z,2.13
2022-07-29T15:06:27.631Z,2.14
2022-07-29T15:07:27.559Z,2.15
2022-07-29T15:08:29.280Z,2.16
2022-07-29T15:10:28.410Z,2.15
2022-07-29T15:11:27.102Z,2.14
2022-07-29T15:14:27.070Z,2.13
2022-07-29T15:16:27.130Z,2.12
2022-07-29T15:17:27.261Z,2.11
2022-07-29T15:18:27.112Z,2.10
2022-07-29T15:19:27.075Z,2.09
2022-07-29T15:20:28.213Z,2.07
2022-07-29T15:22:27.065Z,2.06
2022-07-29T15:23:27.011Z,2.05
2022-07-29T15:24:27.399Z,2.04
2022-07-29T15:25:28.669Z,2.03
2022-07-29T15:28:27.188Z,2.02
2022-07-29T15:30:29.601Z,2.03
2022-07-29T15:31:27.199Z,2.02
2022-07-29T15:32:27.510Z,2.03
2022-07-29T15:37:27.178Z,2.02
2022-07-29T15:40:27.210Z,2.01
2022-07-29T15:41:27.597Z,2.00
2022-07-29T15:42:27.090Z,1.99
2022-07-29T15:43:27.195Z,1.98
2022-07-29T15:44:28.355Z,1.96
2022-07-29T15:46:36.491Z,1.94
2022-07-29T15:47:27.613Z,1.93
2022-07-29T15:48:27.023Z,1.91
2022-07-29T15:49:48.531Z,1.90
2022-07-29T15:50:28.402Z,1.91
2022-07-29T15:51:27.301Z,1.90
2022-07-29T15:52:27.059Z,1.91
2022-07-29T15:53:27.101Z,1.90
2022-07-29T15:56:27.901Z,1.91